createdAt,value
2018-12-03T00:00:19.090Z,12.19
2018-12-03T00:01:18.966Z,12.19
2018-12-03T00:02:18.921Z,12.19
2018-12-03T00:03:18.696Z,12.25
2018-12-03T00:04:18.798Z,12.25
2018-12-03T00:05:19.147Z,12.25
2018-12-03T00:06:18.810Z,12.25
2018-12-03T00:07:18.826Z,12.25
2018-12-03T00:08:18.922Z,12.25
2018-12-03T00:09:18.718Z,12.25
2018-12-03T00:10:18.960Z,12.25
2018-12-03T00:11:18.927Z,12.25
2018-12-03T00:12:18.841Z,12.25
2018-12-03T00:13:18.747Z,12.25
2018-12-03T00:14:18.885Z,12.25
2018-12-03T00:15:18.768Z,12.25
2018-12-03T00:16:18.707Z,12.25
2018-12-03T00:17:18.733Z,12.25
2018-12-03T00:18:19.203Z,12.25
2018-12-03T00:19:18.824Z,12.25
2018-12-03T00:20:18.912Z,12.25
2018-12-03T00:21:18.825Z,12.25
2018-12-03T00:22:18.693Z,12.25
2018-12-03T00:23:18.897Z,12.25
2018-12-03T00:24:18.923Z,12.25
2018-12-03T00:25:18.907Z,12.25
2018-12-03T00:26:18.825Z,12.31
2018-12-03T00:27:18.696Z,12.37
2018-12-03T00:28:18.865Z,12.37
2018-12-03T00:29:18.918Z,12.31
2018-12-03T00:30:18.735Z,12.37
2018-12-03T00:31:18.772Z,12.37
2018-12-03T00:32:18.881Z,12.37
2018-12-03T00:33:18.776Z,12.37
2018-12-03T00:34:18.976Z,12.37
2018-12-03T00:35:18.897Z,12.37
2018-12-03T00:36:18.677Z,12.37
2018-12-03T00:37:18.712Z,12.37
2018-12-03T00:38:18.713Z,12.37
2018-12-03T00:39:18.764Z,12.37
2018-12-03T00:40:18.857Z,12.37
2018-12-03T00:41:18.809Z,12.37
2018-12-03T00:42:18.715Z,12.37
2018-12-03T00:43:18.674Z,12.37
2018-12-03T00:44:18.950Z,12.31
2018-12-03T00:45:18.682Z,12.37
2018-12-03T00:46:18.727Z,12.37
2018-12-03T00:47:18.983Z,12.37
2018-12-03T00:48:18.873Z,12.31
2018-12-03T00:49:18.734Z,12.37
2018-12-03T00:50:18.830Z,12.37
2018-12-03T00:51:18.846Z,12.37
2018-12-03T00:52:18.714Z,12.31
2018-12-03T00:53:19.036Z,12.37
2018-12-03T00:54:18.866Z,12.37
2018-12-03T00:55:18.879Z,12.31
2018-12-03T00:56:18.709Z,12.31
2018-12-03T00:57:18.834Z,12.31
2018-12-03T00:58:18.759Z,12.31
2018-12-03T00:59:18.949Z,12.31
2018-12-03T01:00:18.866Z,12.31
2018-12-03T01:01:18.652Z,12.31
2018-12-03T01:02:18.825Z,12.31
2018-12-03T01:03:18.917Z,12.31
2018-12-03T01:04:18.874Z,12.31
2018-12-03T01:05:18.663Z,12.31
2018-12-03T01:06:18.836Z,12.31
2018-12-03T01:07:18.655Z,12.31
2018-12-03T01:08:18.760Z,12.31
2018-12-03T01:09:19.035Z,12.31
2018-12-03T01:10:18.733Z,12.31
2018-12-03T01:11:18.778Z,12.31
2018-12-03T01:12:18.851Z,12.31
2018-12-03T01:13:18.672Z,12.31
2018-12-03T01:14:18.839Z,12.31
2018-12-03T01:15:18.616Z,12.31
2018-12-03T01:16:18.849Z,12.25
2018-12-03T01:17:18.719Z,12.31
2018-12-03T01:18:18.649Z,12.31
2018-12-03T01:19:18.720Z,12.31
2018-12-03T01:20:18.688Z,12.31
2018-12-03T01:21:18.743Z,12.25
2018-12-03T01:22:18.679Z,12.31
2018-12-03T01:23:18.653Z,12.25
2018-12-03T01:24:18.658Z,12.31
2018-12-03T01:25:18.700Z,12.25
2018-12-03T01:26:18.709Z,12.25
2018-12-03T01:27:18.659Z,12.25
2018-12-03T01:28:19.010Z,12.25
2018-12-03T01:29:18.971Z,12.31
2018-12-03T01:30:18.708Z,12.25
2018-12-03T01:31:18.603Z,12.25
2018-12-03T01:32:18.636Z,12.25
2018-12-03T01:33:18.654Z,12.25
2018-12-03T01:34:18.594Z,12.25
2018-12-03T01:35:18.831Z,12.25
2018-12-03T01:36:19.045Z,12.25
2018-12-03T01:37:18.692Z,12.25
2018-12-03T01:38:18.695Z,12.25
2018-12-03T01:39:18.633Z,12.25
2018-12-03T01:40:18.641Z,12.31
2018-12-03T01:41:18.646Z,12.25
2018-12-03T01:42:18.570Z,12.31
2018-12-03T01:43:18.795Z,12.25
2018-12-03T01:44:18.585Z,12.25
2018-12-03T01:45:18.707Z,12.31
2018-12-03T01:46:18.783Z,12.25
2018-12-03T01:47:18.601Z,12.25
2018-12-03T01:48:19.478Z,12.25
2018-12-03T01:49:18.905Z,12.31
2018-12-03T01:50:18.832Z,12.31
2018-12-03T01:51:18.721Z,12.25
2018-12-03T01:52:18.796Z,12.31
2018-12-03T01:53:18.815Z,12.31
2018-12-03T01:54:18.666Z,12.31
2018-12-03T01:55:18.643Z,12.31
2018-12-03T01:56:18.820Z,12.31
2018-12-03T01:57:18.983Z,12.31
2018-12-03T01:58:18.800Z,12.31
2018-12-03T01:59:18.692Z,12.31
2018-12-03T02:00:18.747Z,12.31
2018-12-03T02:01:18.710Z,12.31
2018-12-03T02:02:18.656Z,12.31
2018-12-03T02:03:18.709Z,12.37
2018-12-03T02:04:18.648Z,12.31
2018-12-03T02:05:18.642Z,12.31
2018-12-03T02:06:18.678Z,12.31
2018-12-03T02:07:18.798Z,12.31
2018-12-03T02:08:18.856Z,12.31
2018-12-03T02:09:18.731Z,12.31
2018-12-03T02:10:18.665Z,12.31
2018-12-03T02:11:18.591Z,12.31
2018-12-03T02:12:18.767Z,12.37
2018-12-03T02:13:18.616Z,12.31
2018-12-03T02:14:19.133Z,12.31
2018-12-03T02:15:18.926Z,12.31
2018-12-03T02:16:18.619Z,12.31
2018-12-03T02:17:18.600Z,12.37
2018-12-03T02:18:18.655Z,12.31
2018-12-03T02:19:18.887Z,12.31
2018-12-03T02:20:18.639Z,12.37
2018-12-03T02:21:18.611Z,12.37
2018-12-03T02:22:18.685Z,12.37
2018-12-03T02:23:18.709Z,12.31
2018-12-03T02:24:18.770Z,12.37
2018-12-03T02:25:18.635Z,12.37
2018-12-03T02:26:18.662Z,12.31
2018-12-03T02:27:18.650Z,12.37
2018-12-03T02:28:18.642Z,12.31
2018-12-03T02:29:18.583Z,12.31
2018-12-03T02:30:18.606Z,12.31
2018-12-03T02:31:18.643Z,12.31
2018-12-03T02:32:18.802Z,12.31
2018-12-03T02:33:18.630Z,12.31
2018-12-03T02:34:18.648Z,12.37
2018-12-03T02:35:18.622Z,12.37
2018-12-03T02:36:18.551Z,12.37
2018-12-03T02:37:18.694Z,12.31
2018-12-03T02:38:18.808Z,12.37
2018-12-03T02:39:18.797Z,12.31
2018-12-03T02:40:18.640Z,12.37
2018-12-03T02:41:18.602Z,12.37
2018-12-03T02:42:18.738Z,12.37
2018-12-03T02:43:18.726Z,12.37
2018-12-03T02:44:18.577Z,12.31
2018-12-03T02:45:18.708Z,12.37
2018-12-03T02:46:18.749Z,12.37
2018-12-03T02:47:18.609Z,12.44
2018-12-03T02:48:18.682Z,12.37
2018-12-03T02:49:18.600Z,12.37
2018-12-03T02:50:18.660Z,12.44
2018-12-03T02:51:18.605Z,12.37
2018-12-03T02:52:18.574Z,12.37
2018-12-03T02:53:18.560Z,12.37
2018-12-03T02:54:18.558Z,12.37
2018-12-03T02:55:18.621Z,12.37
2018-12-03T02:56:18.550Z,12.37
2018-12-03T02:57:18.590Z,12.44
2018-12-03T02:58:18.561Z,12.44
2018-12-03T02:59:18.569Z,12.44
2018-12-03T03:00:18.536Z,12.37
2018-12-03T03:01:18.533Z,12.44
2018-12-03T03:02:18.851Z,12.37
2018-12-03T03:03:18.553Z,12.44
2018-12-03T03:04:18.523Z,12.44
2018-12-03T03:05:18.533Z,12.44
2018-12-03T03:06:18.504Z,12.44
2018-12-03T03:07:18.648Z,12.44
2018-12-03T03:08:18.510Z,12.44
2018-12-03T03:09:18.598Z,12.37
2018-12-03T03:10:18.529Z,12.44
2018-12-03T03:11:18.735Z,12.44
2018-12-03T03:12:18.554Z,12.44
2018-12-03T03:13:18.667Z,12.44
2018-12-03T03:14:18.729Z,12.44
2018-12-03T03:15:18.800Z,12.44
2018-12-03T03:16:18.646Z,12.44
2018-12-03T03:17:18.555Z,12.44
2018-12-03T03:18:18.697Z,12.44
2018-12-03T03:19:18.669Z,12.44
2018-12-03T03:20:18.773Z,12.44
2018-12-03T03:21:18.615Z,12.44
2018-12-03T03:22:18.586Z,12.44
2018-12-03T03:23:18.594Z,12.44
2018-12-03T03:24:18.566Z,12.44
2018-12-03T03:25:18.697Z,12.44
2018-12-03T03:26:18.500Z,12.44
2018-12-03T03:27:18.620Z,12.44
2018-12-03T03:28:18.512Z,12.44
2018-12-03T03:29:18.499Z,12.44
2018-12-03T03:30:18.730Z,12.44
2018-12-03T03:31:18.558Z,12.44
2018-12-03T03:32:18.542Z,12.37
2018-12-03T03:33:18.696Z,12.44
2018-12-03T03:34:18.583Z,12.44
2018-12-03T03:35:18.515Z,12.44
2018-12-03T03:36:18.648Z,12.44
2018-12-03T03:37:18.522Z,12.44
2018-12-03T03:38:18.526Z,12.44
2018-12-03T03:39:18.618Z,12.44
2018-12-03T03:40:18.515Z,12.44
2018-12-03T03:41:18.604Z,12.44
2018-12-03T03:42:18.469Z,12.37
2018-12-03T03:43:18.691Z,12.44
2018-12-03T03:44:18.613Z,12.37
2018-12-03T03:45:18.698Z,12.44
2018-12-03T03:46:18.572Z,12.44
2018-12-03T03:47:18.624Z,12.44
2018-12-03T03:48:18.769Z,12.44
2018-12-03T03:49:18.484Z,12.5
2018-12-03T03:50:18.595Z,12.44
2018-12-03T03:51:18.793Z,12.44
2018-12-03T03:52:18.526Z,12.44
2018-12-03T03:53:18.566Z,12.44
2018-12-03T03:54:18.451Z,12.44
2018-12-03T03:55:18.475Z,12.44
2018-12-03T03:56:18.534Z,12.44
2018-12-03T03:57:18.678Z,12.44
2018-12-03T03:58:18.685Z,12.44
2018-12-03T03:59:18.652Z,12.44
2018-12-03T04:00:18.485Z,12.44
2018-12-03T04:01:18.803Z,12.44
2018-12-03T04:02:18.731Z,12.5
2018-12-03T04:03:18.424Z,12.44
2018-12-03T04:04:18.657Z,12.5
2018-12-03T04:05:18.859Z,12.44
2018-12-03T04:06:18.592Z,12.5
2018-12-03T04:07:18.416Z,12.44
2018-12-03T04:08:18.514Z,12.44
2018-12-03T04:09:18.565Z,12.5
2018-12-03T04:10:18.661Z,12.44
2018-12-03T04:11:18.473Z,12.44
2018-12-03T04:12:18.474Z,12.44
2018-12-03T04:13:18.762Z,12.44
2018-12-03T04:14:18.574Z,12.44
2018-12-03T04:15:18.716Z,12.44
2018-12-03T04:16:18.520Z,12.44
2018-12-03T04:17:18.483Z,12.44
2018-12-03T04:18:18.551Z,12.44
2018-12-03T04:19:18.433Z,12.37
2018-12-03T04:20:18.641Z,12.44
2018-12-03T04:21:18.644Z,12.44
2018-12-03T04:22:18.511Z,12.37
2018-12-03T04:23:18.604Z,12.44
2018-12-03T04:24:18.764Z,12.37
2018-12-03T04:25:19.273Z,12.37
2018-12-03T04:26:19.248Z,12.37
2018-12-03T04:27:18.493Z,12.37
2018-12-03T04:28:18.415Z,12.37
2018-12-03T04:29:18.626Z,12.37
2018-12-03T04:30:18.641Z,12.37
2018-12-03T04:31:18.519Z,12.37
2018-12-03T04:32:18.555Z,12.37
2018-12-03T04:33:18.428Z,12.37
2018-12-03T04:34:18.438Z,12.37
2018-12-03T04:35:18.425Z,12.37
2018-12-03T04:36:18.559Z,12.37
2018-12-03T04:37:18.456Z,12.37
2018-12-03T04:38:18.398Z,12.31
2018-12-03T04:39:18.438Z,12.37
2018-12-03T04:40:18.524Z,12.31
2018-12-03T04:41:18.405Z,12.37
2018-12-03T04:42:18.526Z,12.37
2018-12-03T04:43:18.505Z,12.37
2018-12-03T04:44:18.499Z,12.37
2018-12-03T04:45:18.459Z,12.37
2018-12-03T04:46:18.423Z,12.37
2018-12-03T04:47:18.461Z,12.37
2018-12-03T04:48:18.536Z,12.37
2018-12-03T04:49:18.376Z,12.37
2018-12-03T04:50:18.591Z,12.37
2018-12-03T04:51:18.444Z,12.37
2018-12-03T04:52:18.409Z,12.37
2018-12-03T04:53:18.571Z,12.37
2018-12-03T04:54:19.280Z,12.37
2018-12-03T04:55:18.428Z,12.37
2018-12-03T04:56:18.489Z,12.37
2018-12-03T04:57:18.537Z,12.37
2018-12-03T04:58:18.487Z,12.37
2018-12-03T04:59:18.422Z,12.37
2018-12-03T05:00:18.601Z,12.37
2018-12-03T05:01:18.810Z,12.37
2018-12-03T05:02:18.710Z,12.37
2018-12-03T05:03:18.606Z,12.31
2018-12-03T05:04:18.397Z,12.37
2018-12-03T05:05:18.493Z,12.31
2018-12-03T05:06:18.620Z,12.37
2018-12-03T05:07:18.366Z,12.37
2018-12-03T05:08:18.601Z,12.31
2018-12-03T05:09:18.533Z,12.37
2018-12-03T05:10:18.419Z,12.37
2018-12-03T05:11:18.589Z,12.37
2018-12-03T05:12:18.495Z,12.31
2018-12-03T05:13:19.226Z,12.37
2018-12-03T05:14:18.449Z,12.31
2018-12-03T05:15:18.458Z,12.37
2018-12-03T05:16:18.456Z,12.37
2018-12-03T05:17:18.535Z,12.37
2018-12-03T05:18:18.374Z,12.37
2018-12-03T05:19:18.544Z,12.37
2018-12-03T05:20:18.534Z,12.37
2018-12-03T05:21:18.477Z,12.37
2018-12-03T05:22:18.375Z,12.37
2018-12-03T05:23:18.404Z,12.37
2018-12-03T05:24:18.608Z,12.37
2018-12-03T05:25:19.994Z,12.37
2018-12-03T05:26:18.499Z,12.37
2018-12-03T05:27:18.540Z,12.37
2018-12-03T05:28:18.413Z,12.37
2018-12-03T05:29:18.597Z,12.37
2018-12-03T05:30:18.341Z,12.37
2018-12-03T05:31:18.391Z,12.37
2018-12-03T05:32:18.404Z,12.44
2018-12-03T05:33:18.498Z,12.37
2018-12-03T05:34:18.372Z,12.44
2018-12-03T05:35:18.449Z,12.37
2018-12-03T05:36:18.412Z,12.37
2018-12-03T05:37:18.565Z,12.44
2018-12-03T05:38:18.336Z,12.37
2018-12-03T05:39:18.455Z,12.44
2018-12-03T05:40:18.588Z,12.37
2018-12-03T05:41:18.435Z,12.37
2018-12-03T05:42:18.342Z,12.37
2018-12-03T05:43:18.350Z,12.44
2018-12-03T05:44:19.248Z,12.44
2018-12-03T05:45:18.394Z,12.44
2018-12-03T05:46:18.395Z,12.5
2018-12-03T05:47:18.392Z,12.5
2018-12-03T05:48:18.474Z,12.44
2018-12-03T05:49:18.429Z,12.5
2018-12-03T05:50:18.399Z,12.5
2018-12-03T05:51:18.507Z,12.44
2018-12-03T05:52:18.451Z,12.44
2018-12-03T05:53:18.473Z,12.44
2018-12-03T05:54:18.352Z,12.37
2018-12-03T05:55:18.607Z,12.44
2018-12-03T05:56:18.305Z,12.44
2018-12-03T05:57:18.392Z,12.44
2018-12-03T05:58:18.475Z,12.37
2018-12-03T05:59:18.466Z,12.37
2018-12-03T06:00:18.356Z,12.37
2018-12-03T06:01:18.378Z,12.37
2018-12-03T06:02:18.698Z,12.37
2018-12-03T06:03:18.356Z,12.37
2018-12-03T06:04:18.659Z,12.37
2018-12-03T06:05:19.163Z,12.37
2018-12-03T06:06:18.337Z,12.37
2018-12-03T06:07:18.405Z,12.37
2018-12-03T06:08:18.434Z,12.37
2018-12-03T06:09:18.567Z,12.37
2018-12-03T06:10:18.363Z,12.31
2018-12-03T06:11:18.392Z,12.37
2018-12-03T06:12:18.577Z,12.31
2018-12-03T06:13:18.507Z,12.31
2018-12-03T06:14:18.316Z,12.37
2018-12-03T06:15:18.498Z,12.37
2018-12-03T06:16:18.287Z,12.37
2018-12-03T06:17:18.309Z,12.37
2018-12-03T06:18:18.243Z,12.31
2018-12-03T06:19:18.304Z,12.37
2018-12-03T06:20:18.300Z,12.37
2018-12-03T06:21:18.589Z,12.37
2018-12-03T06:22:18.274Z,12.37
2018-12-03T06:23:18.314Z,12.44
2018-12-03T06:24:18.249Z,12.37
2018-12-03T06:25:18.397Z,12.37
2018-12-03T06:26:18.404Z,12.37
2018-12-03T06:27:18.308Z,12.37
2018-12-03T06:28:18.310Z,12.31
2018-12-03T06:29:19.157Z,12.37
2018-12-03T06:30:18.337Z,12.37
2018-12-03T06:31:18.504Z,12.37
2018-12-03T06:32:18.411Z,12.37
2018-12-03T06:33:18.615Z,12.37
2018-12-03T06:34:19.383Z,12.37
2018-12-03T06:35:18.334Z,12.37
2018-12-03T06:36:18.326Z,12.37
2018-12-03T06:37:18.493Z,12.37
2018-12-03T06:38:18.414Z,12.37
2018-12-03T06:39:18.469Z,12.44
2018-12-03T06:40:19.184Z,12.37
2018-12-03T06:41:18.646Z,12.37
2018-12-03T06:42:18.517Z,12.37
2018-12-03T06:43:18.271Z,12.44
2018-12-03T06:44:18.251Z,12.44
2018-12-03T06:45:18.343Z,12.44
2018-12-03T06:46:18.541Z,12.44
2018-12-03T06:47:18.415Z,12.37
2018-12-03T06:48:18.617Z,12.37
2018-12-03T06:49:18.517Z,12.37
2018-12-03T06:50:18.276Z,12.37
2018-12-03T06:51:18.261Z,12.37
2018-12-03T06:52:18.457Z,12.31
2018-12-03T06:53:18.432Z,12.37
2018-12-03T06:54:18.680Z,12.37
2018-12-03T06:55:18.295Z,12.31
2018-12-03T06:56:18.350Z,12.31
2018-12-03T06:57:18.313Z,12.31
2018-12-03T06:58:18.275Z,12.31
2018-12-03T06:59:18.440Z,12.37
2018-12-03T07:00:18.362Z,12.31
2018-12-03T07:01:18.297Z,12.31
2018-12-03T07:02:18.399Z,12.31
2018-12-03T07:03:18.354Z,12.31
2018-12-03T07:04:18.478Z,12.31
2018-12-03T07:05:18.418Z,12.31
2018-12-03T07:06:18.326Z,12.37
2018-12-03T07:07:18.398Z,12.31
2018-12-03T07:08:18.453Z,12.31
2018-12-03T07:09:18.576Z,12.31
2018-12-03T07:10:18.315Z,12.31
2018-12-03T07:11:18.269Z,12.37
2018-12-03T07:12:18.281Z,12.31
2018-12-03T07:13:18.425Z,12.31
2018-12-03T07:14:18.278Z,12.31
2018-12-03T07:15:18.303Z,12.31
2018-12-03T07:16:18.273Z,12.37
2018-12-03T07:17:18.310Z,12.37
2018-12-03T07:18:18.393Z,12.37
2018-12-03T07:19:18.378Z,12.31
2018-12-03T07:20:18.386Z,12.37
2018-12-03T07:21:19.121Z,12.31
2018-12-03T07:22:18.654Z,12.37
2018-12-03T07:23:18.354Z,12.37
2018-12-03T07:24:18.318Z,12.37
2018-12-03T07:25:18.186Z,12.37
2018-12-03T07:26:18.296Z,12.31
2018-12-03T07:27:18.297Z,12.37
2018-12-03T07:28:18.303Z,12.37
2018-12-03T07:29:18.395Z,12.37
2018-12-03T07:30:18.258Z,12.37
2018-12-03T07:31:18.463Z,12.37
2018-12-03T07:32:18.232Z,12.31
2018-12-03T07:33:18.417Z,12.31
2018-12-03T07:34:18.179Z,12.37
2018-12-03T07:35:18.998Z,12.31
2018-12-03T07:36:18.225Z,12.31
2018-12-03T07:37:18.218Z,12.37
2018-12-03T07:38:19.058Z,12.31
2018-12-03T07:39:18.400Z,12.31
2018-12-03T07:40:18.404Z,12.31
2018-12-03T07:41:18.251Z,12.37
2018-12-03T07:42:18.246Z,12.31
2018-12-03T07:43:18.301Z,12.37
2018-12-03T07:44:18.272Z,12.37
2018-12-03T07:45:18.396Z,12.44
2018-12-03T07:46:18.372Z,12.44
2018-12-03T07:47:18.244Z,12.37
2018-12-03T07:48:18.240Z,12.44
2018-12-03T07:49:18.239Z,12.44
2018-12-03T07:50:18.596Z,12.37
2018-12-03T07:51:18.236Z,12.44
2018-12-03T07:52:18.257Z,12.44
2018-12-03T07:53:18.257Z,12.37
2018-12-03T07:54:18.207Z,12.37
2018-12-03T07:55:18.216Z,12.44
2018-12-03T07:56:18.206Z,12.44
2018-12-03T07:57:18.174Z,12.44
2018-12-03T07:58:18.238Z,12.44
2018-12-03T07:59:18.173Z,12.37
2018-12-03T08:00:18.236Z,12.44
2018-12-03T08:01:18.255Z,12.44
2018-12-03T08:02:18.206Z,12.44
2018-12-03T08:03:18.168Z,12.44
2018-12-03T08:04:18.250Z,12.44
2018-12-03T08:05:18.284Z,12.44
2018-12-03T08:06:18.173Z,12.44
2018-12-03T08:07:18.262Z,12.44
2018-12-03T08:08:18.481Z,12.44
2018-12-03T08:09:18.358Z,12.44
2018-12-03T08:10:18.331Z,12.44
2018-12-03T08:11:18.427Z,12.44
2018-12-03T08:12:18.299Z,12.44
2018-12-03T08:13:18.251Z,12.44
2018-12-03T08:14:18.400Z,12.44
2018-12-03T08:15:18.239Z,12.44
2018-12-03T08:16:18.192Z,12.44
2018-12-03T08:17:18.487Z,12.44
2018-12-03T08:18:20.444Z,12.44
2018-12-03T08:19:18.534Z,12.44
2018-12-03T08:20:18.351Z,12.44
2018-12-03T08:21:18.501Z,12.44
2018-12-03T08:22:18.458Z,12.5
2018-12-03T08:23:18.237Z,12.5
2018-12-03T08:24:18.296Z,12.5
2018-12-03T08:25:19.074Z,12.5
2018-12-03T08:26:20.658Z,12.5
2018-12-03T08:27:18.352Z,12.5
2018-12-03T08:28:18.294Z,12.56
2018-12-03T08:29:18.142Z,12.5
2018-12-03T08:30:18.373Z,12.5
2018-12-03T08:31:18.398Z,12.44
2018-12-03T08:32:18.341Z,12.5
2018-12-03T08:33:18.240Z,12.5
2018-12-03T08:34:18.160Z,12.5
2018-12-03T08:35:18.262Z,12.5
2018-12-03T08:36:18.381Z,12.44
2018-12-03T08:37:18.231Z,12.44
2018-12-03T08:38:18.250Z,12.5
2018-12-03T08:39:18.196Z,12.5
2018-12-03T08:40:18.294Z,12.44
2018-12-03T08:41:18.532Z,12.5
2018-12-03T08:42:19.330Z,12.44
2018-12-03T08:43:18.245Z,12.44
2018-12-03T08:44:18.220Z,12.5
2018-12-03T08:45:18.409Z,12.44
2018-12-03T08:46:18.388Z,12.5
2018-12-03T08:47:18.152Z,12.44
2018-12-03T08:48:18.197Z,12.5
2018-12-03T08:49:18.244Z,12.5
2018-12-03T08:50:18.206Z,12.5
2018-12-03T08:51:18.488Z,12.5
2018-12-03T08:52:18.139Z,12.5
2018-12-03T08:53:19.173Z,12.5
2018-12-03T08:54:18.269Z,12.5
2018-12-03T08:55:18.253Z,12.5
2018-12-03T08:56:18.357Z,12.44
2018-12-03T08:57:19.470Z,12.44
2018-12-03T08:58:21.407Z,12.5
2018-12-03T08:59:18.470Z,12.5
2018-12-03T09:00:18.965Z,12.5
2018-12-03T09:01:18.509Z,12.5
2018-12-03T09:02:18.275Z,12.56
2018-12-03T09:03:18.158Z,12.5
2018-12-03T09:04:18.343Z,12.5
2018-12-03T09:05:21.235Z,12.5
2018-12-03T09:06:20.762Z,12.5
2018-12-03T09:07:20.682Z,12.5
2018-12-03T09:08:18.137Z,12.5
2018-12-03T09:09:18.207Z,12.56
2018-12-03T09:10:18.496Z,12.56
2018-12-03T09:11:18.323Z,12.56
2018-12-03T09:12:22.274Z,12.56
2018-12-03T09:13:18.327Z,12.56
2018-12-03T09:14:18.371Z,12.56
2018-12-03T09:15:18.279Z,12.56
2018-12-03T09:16:18.126Z,12.56
2018-12-03T09:17:18.135Z,12.63
2018-12-03T09:18:18.995Z,12.63
2018-12-03T09:19:18.970Z,12.63
2018-12-03T09:20:18.317Z,12.63
2018-12-03T09:21:18.373Z,12.56
2018-12-03T09:22:18.228Z,12.63
2018-12-03T09:23:21.674Z,12.63
2018-12-03T09:24:18.266Z,12.56
2018-12-03T09:25:19.236Z,12.63
2018-12-03T09:26:18.198Z,12.63
2018-12-03T09:27:18.411Z,12.56
2018-12-03T09:28:18.231Z,12.56
2018-12-03T09:29:18.216Z,12.56
2018-12-03T09:30:18.177Z,12.56
2018-12-03T09:31:18.220Z,12.56
2018-12-03T09:32:18.158Z,12.56
2018-12-03T09:33:18.180Z,12.56
2018-12-03T09:34:18.249Z,12.56
2018-12-03T09:35:19.939Z,12.56
2018-12-03T09:36:18.178Z,12.56
2018-12-03T09:37:19.230Z,12.56
2018-12-03T09:38:18.168Z,12.56
2018-12-03T09:39:18.170Z,12.56
2018-12-03T09:40:18.194Z,12.56
2018-12-03T09:41:18.132Z,12.5
2018-12-03T09:42:18.118Z,12.5
2018-12-03T09:43:18.269Z,12.5
2018-12-03T09:44:18.255Z,12.5
2018-12-03T09:45:18.280Z,12.44
2018-12-03T09:46:18.085Z,12.44
2018-12-03T09:47:18.142Z,12.37
2018-12-03T09:48:18.149Z,12.37
2018-12-03T09:49:18.273Z,12.37
2018-12-03T09:50:18.309Z,12.31
2018-12-03T09:51:18.131Z,12.37
2018-12-03T09:52:18.332Z,12.31
2018-12-03T09:53:18.043Z,12.25
2018-12-03T09:54:18.050Z,12.25
2018-12-03T09:55:18.172Z,12.25
2018-12-03T09:56:18.099Z,12.19
2018-12-03T09:57:18.366Z,12.25
2018-12-03T09:58:18.075Z,12.19
2018-12-03T09:59:18.237Z,12.19
2018-12-03T10:00:18.163Z,12.19
2018-12-03T10:01:18.205Z,12.19
2018-12-03T10:02:18.224Z,12.19
2018-12-03T10:03:18.373Z,12.19
2018-12-03T10:04:18.071Z,12.13
2018-12-03T10:05:18.162Z,12.19
2018-12-03T10:06:18.151Z,12.19
2018-12-03T10:07:18.189Z,12.13
2018-12-03T10:08:18.101Z,12.19
2018-12-03T10:09:18.172Z,12.19
2018-12-03T10:10:18.213Z,12.19
2018-12-03T10:11:18.497Z,12.19
2018-12-03T10:12:18.613Z,12.19
2018-12-03T10:13:18.370Z,12.13
2018-12-03T10:14:18.143Z,12.19
2018-12-03T10:15:18.198Z,12.19
2018-12-03T10:16:18.033Z,12.19
2018-12-03T10:17:18.155Z,12.19
2018-12-03T10:18:18.842Z,12.19
2018-12-03T10:19:18.230Z,12.25
2018-12-03T10:20:18.353Z,12.13
2018-12-03T10:21:18.070Z,12.19
2018-12-03T10:22:18.171Z,12.19
2018-12-03T10:23:18.296Z,12.19
2018-12-03T10:24:18.449Z,12.19
2018-12-03T10:25:18.217Z,12.19
2018-12-03T10:26:18.052Z,12.19
2018-12-03T10:27:18.161Z,12.19
2018-12-03T10:28:18.749Z,12.25
2018-12-03T10:29:18.278Z,12.19
2018-12-03T10:30:18.267Z,12.19
2018-12-03T10:31:17.999Z,12.19
2018-12-03T10:32:18.233Z,12.19
2018-12-03T10:33:18.192Z,12.19
2018-12-03T10:34:18.214Z,12.19
2018-12-03T10:35:18.256Z,12.25
2018-12-03T10:36:18.079Z,12.25
2018-12-03T10:37:18.086Z,12.25
2018-12-03T10:38:18.083Z,12.25
2018-12-03T10:39:18.203Z,12.31
2018-12-03T10:40:21.185Z,12.25
2018-12-03T10:41:17.973Z,12.31
2018-12-03T10:42:18.312Z,12.31
2018-12-03T10:43:18.121Z,12.25
2018-12-03T10:44:18.154Z,12.25
2018-12-03T10:45:18.040Z,12.25
2018-12-03T10:46:17.989Z,12.25
2018-12-03T10:47:18.628Z,12.25
2018-12-03T10:48:18.197Z,12.25
2018-12-03T10:49:18.189Z,12.25
2018-12-03T10:50:22.645Z,12.25
2018-12-03T10:51:18.221Z,12.31
2018-12-03T10:52:18.003Z,12.25
2018-12-03T10:53:18.258Z,12.25
2018-12-03T10:54:18.265Z,12.31
2018-12-03T10:55:18.374Z,12.25
2018-12-03T10:56:18.035Z,12.25
2018-12-03T10:57:18.270Z,12.31
2018-12-03T10:58:17.991Z,12.25
2018-12-03T10:59:17.986Z,12.25
2018-12-03T11:00:17.998Z,12.31
2018-12-03T11:01:18.010Z,12.25
2018-12-03T11:02:17.948Z,12.31
2018-12-03T11:03:17.981Z,12.31
2018-12-03T11:04:18.192Z,12.31
2018-12-03T11:05:17.955Z,12.25
2018-12-03T11:06:18.320Z,12.25
2018-12-03T11:07:18.089Z,12.25
2018-12-03T11:08:17.953Z,12.25
2018-12-03T11:09:17.962Z,12.31
2018-12-03T11:10:18.001Z,12.25
2018-12-03T11:11:18.106Z,12.31
2018-12-03T11:12:18.317Z,12.25
2018-12-03T11:13:18.187Z,12.25
2018-12-03T11:14:18.212Z,12.25
2018-12-03T11:15:17.938Z,12.19
2018-12-03T11:16:18.023Z,12.25
2018-12-03T11:17:17.925Z,12.19
2018-12-03T11:18:17.965Z,12.25
2018-12-03T11:19:17.923Z,12.19
2018-12-03T11:20:17.990Z,12.19
2018-12-03T11:21:18.319Z,12.19
2018-12-03T11:22:18.187Z,12.19
2018-12-03T11:23:18.012Z,12.19
2018-12-03T11:24:17.949Z,12.19
2018-12-03T11:25:18.234Z,12.19
2018-12-03T11:26:17.939Z,12.13
2018-12-03T11:27:18.163Z,12.13
2018-12-03T11:28:18.027Z,12.13
2018-12-03T11:29:18.025Z,12.13
2018-12-03T11:30:18.275Z,12.13
2018-12-03T11:31:18.340Z,12.13
2018-12-03T11:32:17.921Z,12.13
2018-12-03T11:33:17.964Z,12.13
2018-12-03T11:34:18.075Z,12.13
2018-12-03T11:35:18.264Z,12
2018-12-03T11:36:18.156Z,12
2018-12-03T11:37:18.008Z,12
2018-12-03T11:38:18.768Z,12
2018-12-03T11:39:18.163Z,12
2018-12-03T11:40:17.903Z,12
2018-12-03T11:41:17.967Z,12
2018-12-03T11:42:18.283Z,12
2018-12-03T11:43:18.288Z,11.94
2018-12-03T11:44:17.901Z,11.94
2018-12-03T11:45:18.134Z,11.94
2018-12-03T11:46:17.944Z,11.94
2018-12-03T11:47:18.088Z,11.94
2018-12-03T11:48:18.058Z,11.94
2018-12-03T11:49:18.335Z,11.94
2018-12-03T11:50:17.996Z,11.94
2018-12-03T11:51:17.881Z,11.94
2018-12-03T11:52:18.151Z,11.94
2018-12-03T11:53:18.677Z,11.94
2018-12-03T11:54:18.073Z,11.88
2018-12-03T11:55:18.015Z,11.94
2018-12-03T11:56:18.185Z,11.88
2018-12-03T11:57:17.941Z,11.94
2018-12-03T11:58:25.730Z,11.88
2018-12-03T11:59:18.299Z,11.94
2018-12-03T12:00:17.949Z,11.88
2018-12-03T12:01:18.019Z,11.88
2018-12-03T12:02:18.384Z,11.88
2018-12-03T12:03:18.124Z,11.88
2018-12-03T12:04:18.083Z,11.88
2018-12-03T12:05:17.986Z,11.88
2018-12-03T12:06:18.290Z,11.88
2018-12-03T12:07:18.118Z,11.88
2018-12-03T12:08:17.978Z,11.88
2018-12-03T12:09:21.465Z,11.88
2018-12-03T12:10:21.234Z,11.88
2018-12-03T12:11:18.316Z,11.88
2018-12-03T12:12:18.052Z,11.88
2018-12-03T12:13:18.073Z,11.88
2018-12-03T12:14:18.388Z,11.88
2018-12-03T12:15:18.079Z,11.94
2018-12-03T12:16:18.153Z,11.94
2018-12-03T12:17:18.127Z,11.94
2018-12-03T12:18:18.156Z,11.94
2018-12-03T12:19:18.071Z,11.94
2018-12-03T12:20:18.001Z,12
2018-12-03T12:21:17.857Z,12
2018-12-03T12:22:17.861Z,12.06
2018-12-03T12:23:17.872Z,12.06
2018-12-03T12:24:17.866Z,12.06
2018-12-03T12:25:18.308Z,12.13
2018-12-03T12:26:17.909Z,12.13
2018-12-03T12:27:18.017Z,12.13
2018-12-03T12:28:17.873Z,12.13
2018-12-03T12:29:17.915Z,12.19
2018-12-03T12:30:17.991Z,12.19
2018-12-03T12:31:18.032Z,12.19
2018-12-03T12:32:18.242Z,12.25
2018-12-03T12:33:18.487Z,12.19
2018-12-03T12:34:17.913Z,12.25
2018-12-03T12:35:18.288Z,12.25
2018-12-03T12:36:18.682Z,12.25
2018-12-03T12:37:17.960Z,12.25
2018-12-03T12:38:17.952Z,12.25
2018-12-03T12:39:17.885Z,12.25
2018-12-03T12:40:17.895Z,12.25
2018-12-03T12:41:17.869Z,12.25
2018-12-03T12:42:17.833Z,12.31
2018-12-03T12:43:17.908Z,12.31
2018-12-03T12:44:17.863Z,12.25
2018-12-03T12:45:17.969Z,12.31
2018-12-03T12:46:17.870Z,12.31
2018-12-03T12:47:17.846Z,12.31
2018-12-03T12:48:17.978Z,12.31
2018-12-03T12:49:17.919Z,12.31
2018-12-03T12:50:17.984Z,12.31
2018-12-03T12:51:17.995Z,12.37
2018-12-03T12:52:18.174Z,12.37
2018-12-03T12:53:17.865Z,12.37
2018-12-03T12:54:17.882Z,12.37
2018-12-03T12:55:17.966Z,12.37